createdAt,value
2022-08-04T00:00:01.663Z,62.62
2022-08-04T00:03:02.966Z,62.62
2022-08-04T00:05:40.072Z,62.72
2022-08-04T00:08:50.038Z,62.69
2022-08-04T00:11:23.386Z,62.74
2022-08-04T00:14:02.827Z,62.89
2022-08-04T00:16:38.343Z,63.07
2022-08-04T00:19:17.617Z,62.96
2022-08-04T00:22:01.048Z,62.99
2022-08-04T00:24:30.551Z,63.11
2022-08-04T00:26:58.417Z,63.11
2022-08-04T00:29:27.636Z,63.15
2022-08-04T00:31:57.867Z,63.26
2022-08-04T00:34:28.158Z,63.35
2022-08-04T00:36:57.160Z,63.32
2022-08-04T00:39:25.977Z,63.46
2022-08-04T00:41:57.091Z,63.61
2022-08-04T00:44:54.035Z,63.54
2022-08-04T00:47:30.509Z,63.72
2022-08-04T00:50:07.585Z,63.67
2022-08-04T00:52:47.477Z,63.76
2022-08-04T00:55:34.090Z,63.82
2022-08-04T00:58:26.547Z,63.87
2022-08-04T01:01:07.184Z,63.70
2022-08-04T01:04:03.833Z,63.95
2022-08-04T01:06:38.238Z,63.94
2022-08-04T01:09:23.433Z,63.97
2022-08-04T01:12:35.886Z,64.19
2022-08-04T01:15:14.814Z,64.31
2022-08-04T01:18:00.370Z,64.09
2022-08-04T01:20:34.520Z,64.41
2022-08-04T01:23:27.067Z,64.40
2022-08-04T01:26:43.538Z,64.51
2022-08-04T01:29:16.953Z,64.42
2022-08-04T01:32:06.902Z,64.53
2022-08-04T01:34:37.265Z,64.47
2022-08-04T01:37:11.006Z,64.61
2022-08-04T01:39:49.883Z,64.64
2022-08-04T01:42:31.304Z,64.71
2022-08-04T01:45:07.115Z,64.66
2022-08-04T01:47:36.626Z,64.65
2022-08-04T01:50:10.379Z,64.84
2022-08-04T01:52:39.910Z,64.76
2022-08-04T01:55:10.353Z,64.82
2022-08-04T01:57:43.068Z,65.06
2022-08-04T02:00:12.932Z,64.92
2022-08-04T02:02:41.279Z,65.01
2022-08-04T02:05:11.791Z,65.12
2022-08-04T02:08:04.426Z,65.26
2022-08-04T02:10:59.930Z,65.19
2022-08-04T02:13:36.644Z,65.31
2022-08-04T02:16:31.594Z,65.21
2022-08-04T02:19:08.268Z,65.14
2022-08-04T02:21:45.428Z,65.16
2022-08-04T02:24:15.604Z,65.28
2022-08-04T02:26:48.769Z,65.39
2022-08-04T02:29:21.616Z,65.43
2022-08-04T02:32:24.018Z,65.41
2022-08-04T02:34:55.366Z,65.56
2022-08-04T02:37:24.886Z,65.56
2022-08-04T02:39:54.263Z,65.64
2022-08-04T02:42:21.942Z,65.46
2022-08-04T02:44:51.712Z,65.70
2022-08-04T02:47:21.567Z,65.77
2022-08-04T02:49:51.385Z,65.84
2022-08-04T02:52:20.162Z,65.84
2022-08-04T02:54:52.141Z,65.90
2022-08-04T02:57:24.506Z,65.90
2022-08-04T03:00:13.384Z,65.98
2022-08-04T03:03:03.556Z,66.12
2022-08-04T03:06:16.114Z,66.12
2022-08-04T03:09:23.971Z,66.48
2022-08-04T03:12:19.342Z,66.58
2022-08-04T03:15:10.285Z,66.42
2022-08-04T03:17:52.552Z,66.40
2022-08-04T03:20:45.180Z,66.62
2022-08-04T03:23:18.785Z,66.45
2022-08-04T03:26:06.457Z,66.52
2022-08-04T03:29:33.160Z,66.38
2022-08-04T03:32:13.639Z,66.59
2022-08-04T03:35:02.477Z,66.42
2022-08-04T03:37:53.428Z,66.32
2022-08-04T03:40:33.623Z,66.28
2022-08-04T03:43:59.322Z,66.46
2022-08-04T03:46:21.651Z,66.40
2022-08-04T03:49:08.853Z,66.56
2022-08-04T03:52:06.173Z,66.58
2022-08-04T03:54:39.936Z,66.61
2022-08-04T03:57:32.547Z,66.43
2022-08-04T04:00:05.656Z,66.46
2022-08-04T04:02:45.862Z,66.42
2022-08-04T04:05:58.800Z,66.45
2022-08-04T04:08:49.902Z,66.37
2022-08-04T04:11:29.625Z,66.44
2022-08-04T04:14:33.624Z,66.55
2022-08-04T04:17:08.831Z,66.61
2022-08-04T04:19:59.973Z,66.30
2022-08-04T04:22:42.715Z,66.33
2022-08-04T04:25:31.454Z,66.36
2022-08-04T04:28:44.266Z,66.16
2022-08-04T04:31:11.905Z,66.14
2022-08-04T04:33:50.558Z,66.00
2022-08-04T04:36:49.483Z,65.89
2022-08-04T04:39:33.369Z,65.70
2022-08-04T04:42:18.387Z,65.86
2022-08-04T04:45:25.966Z,65.81
2022-08-04T04:48:12.347Z,65.62
2022-08-04T04:51:05.545Z,65.66
2022-08-04T04:53:48.261Z,65.54
2022-08-04T04:56:29.622Z,65.51
2022-08-04T04:58:58.046Z,65.25
2022-08-04T05:01:38.136Z,65.32
2022-08-04T05:04:08.836Z,65.21
2022-08-04T05:06:54.627Z,65.20
2022-08-04T05:09:52.420Z,65.11
2022-08-04T05:14:32.264Z,64.93
2022-08-04T05:15:15.472Z,64.69
2022-08-04T05:17:50.448Z,64.78
2022-08-04T05:20:24.663Z,64.41
2022-08-04T05:22:58.268Z,64.40
2022-08-04T05:25:55.047Z,64.40
2022-08-04T05:28:34.315Z,63.90
2022-08-04T05:31:11.257Z,63.82
2022-08-04T05:33:54.818Z,63.63
2022-08-04T05:36:41.124Z,63.46
2022-08-04T05:39:25.371Z,63.56
2022-08-04T05:41:55.172Z,63.37
2022-08-04T05:44:25.356Z,62.98
2022-08-04T05:46:58.183Z,62.79
2022-08-04T05:49:29.735Z,62.60
2022-08-04T05:52:01.809Z,62.45
2022-08-04T05:54:33.735Z,62.31
2022-08-04T05:57:04.591Z,62.14
2022-08-04T05:59:35.207Z,61.98
2022-08-04T06:02:04.887Z,61.85
2022-08-04T06:04:38.916Z,61.64
2022-08-04T06:07:07.270Z,61.72
2022-08-04T06:09:35.308Z,61.58
2022-08-04T06:12:07.375Z,61.32
2022-08-04T06:14:46.554Z,61.03
2022-08-04T06:18:33.262Z,60.91
2022-08-04T06:20:20.150Z,60.64
2022-08-04T06:22:54.483Z,60.48
2022-08-04T06:25:28.526Z,60.49
2022-08-04T06:27:57.021Z,60.20
2022-08-04T06:30:27.352Z,59.93
2022-08-04T06:33:03.368Z,59.71
2022-08-04T06:35:33.899Z,59.22
2022-08-04T06:38:03.152Z,58.83
2022-08-04T06:40:34.102Z,58.63
2022-08-04T06:43:06.710Z,58.53
2022-08-04T06:45:37.408Z,58.20
2022-08-04T06:48:06.844Z,57.93
2022-08-04T06:51:30.949Z,57.39
2022-08-04T06:53:25.696Z,57.14
2022-08-04T06:55:54.605Z,57.13
2022-08-04T06:58:23.308Z,56.92
2022-08-04T07:00:51.833Z,56.66
2022-08-04T07:03:21.628Z,56.21
2022-08-04T07:05:50.708Z,55.75
2022-08-04T07:08:19.519Z,55.45
2022-08-04T07:10:47.863Z,55.19
2022-08-04T07:13:16.007Z,54.89
2022-08-04T07:15:45.846Z,54.60
2022-08-04T07:18:14.003Z,54.23
2022-08-04T07:20:46.287Z,53.91
2022-08-04T07:23:17.645Z,53.40
2022-08-04T07:25:59.422Z,52.90
2022-08-04T07:28:30.908Z,52.66
2022-08-04T07:30:59.033Z,52.40
2022-08-04T07:33:27.829Z,52.13
2022-08-04T07:36:05.661Z,51.95
2022-08-04T07:38:48.626Z,51.38
2022-08-04T07:41:40.689Z,51.03
2022-08-04T07:44:09.648Z,50.76
2022-08-04T07:46:37.626Z,50.27
2022-08-04T07:49:06.109Z,49.64
2022-08-04T07:51:35.554Z,49.02
2022-08-04T07:54:05.414Z,48.73
2022-08-04T07:56:36.574Z,48.27
2022-08-04T07:59:04.905Z,47.95
2022-08-04T08:01:35.347Z,47.42
2022-08-04T08:04:06.609Z,47.14
2022-08-04T08:06:42.698Z,46.69
2022-08-04T08:09:16.439Z,46.23
2022-08-04T08:12:37.270Z,45.47
2022-08-04T08:14:38.033Z,45.45
2022-08-04T08:17:05.971Z,45.08
2022-08-04T08:19:37.033Z,44.67
2022-08-04T08:22:05.404Z,44.23
2022-08-04T08:24:37.262Z,44.25
2022-08-04T08:27:06.899Z,43.80
2022-08-04T08:29:35.514Z,42.93
2022-08-04T08:32:08.490Z,43.10
2022-08-04T08:34:38.860Z,42.83
2022-08-04T08:37:16.355Z,42.67
2022-08-04T08:39:52.891Z,42.09
2022-08-04T08:42:29.760Z,42.10
2022-08-04T08:45:17.856Z,41.86
2022-08-04T08:48:13.170Z,41.92
2022-08-04T08:51:02.168Z,41.42
2022-08-04T08:53:29.823Z,41.55
2022-08-04T08:56:32.348Z,40.90
2022-08-04T08:59:27.385Z,40.53
2022-08-04T09:02:20.093Z,40.39
2022-08-04T09:04:53.861Z,40.10
2022-08-04T09:07:21.969Z,39.86
2022-08-04T09:10:13.679Z,40.06
2022-08-04T09:13:05.171Z,39.46
2022-08-04T09:15:45.643Z,37.27
2022-08-04T09:18:32.898Z,35.83
2022-08-04T09:21:06.959Z,33.98
2022-08-04T09:23:59.107Z,32.57
2022-08-04T09:26:32.574Z,30.81
2022-08-04T09:29:18.979Z,28.87
2022-08-04T09:32:06.951Z,26.63
2022-08-04T09:35:03.108Z,24.22
2022-08-04T09:37:58.314Z,21.91
2022-08-04T09:40:52.706Z,20.55
2022-08-04T09:44:48.792Z,18.30
2022-08-04T09:46:55.749Z,16.91
2022-08-04T09:49:47.849Z,16.58
2022-08-04T09:52:46.548Z,15.34
2022-08-04T09:55:53.470Z,14.42
2022-08-04T09:58:28.885Z,12.82
2022-08-04T10:01:03.259Z,11.72
2022-08-04T10:03:35.637Z,11.57
2022-08-04T10:06:40.676Z,10.95
2022-08-04T10:09:33.766Z,11.26
2022-08-04T10:12:01.335Z,10.87
2022-08-04T10:14:41.495Z,10.21
2022-08-04T10:17:24.431Z,10.20
2022-08-04T10:20:07.862Z,9.65
2022-08-04T10:23:09.216Z,9.49
2022-08-04T10:26:06.077Z,9.24
2022-08-04T10:28:31.624Z,8.88
2022-08-04T10:31:03.725Z,8.80
2022-08-04T10:33:34.549Z,8.42
2022-08-04T10:36:06.691Z,8.50
2022-08-04T10:38:45.240Z,8.18
2022-08-04T10:41:17.147Z,7.71
2022-08-04T10:44:24.632Z,7.78
2022-08-04T10:47:02.099Z,7.62
2022-08-04T10:49:38.412Z,7.90
2022-08-04T10:52:17.440Z,8.10
2022-08-04T10:55:03.820Z,7.67
2022-08-04T10:57:37.475Z,7.56
2022-08-04T11:00:12.282Z,7.48
2022-08-04T11:02:45.418Z,7.11
2022-08-04T11:05:24.764Z,7.49
2022-08-04T11:08:10.038Z,7.93
2022-08-04T11:10:46.150Z,7.91
2022-08-04T11:13:29.474Z,7.98
2022-08-04T11:16:03.126Z,8.20
2022-08-04T11:18:45.764Z,8.79
2022-08-04T11:21:23.394Z,9.38
2022-08-04T11:24:03.628Z,10.61
2022-08-04T11:26:49.036Z,10.87
2022-08-04T11:29:24.117Z,11.65
2022-08-04T11:31:52.640Z,12.44
2022-08-04T11:34:25.310Z,13.09
2022-08-04T11:37:18.540Z,13.75
2022-08-04T11:39:52.329Z,14.67
2022-08-04T11:42:23.784Z,15.13
2022-08-04T11:45:07.080Z,15.15
2022-08-04T11:48:07.526Z,15.91
2022-08-04T11:50:39.450Z,16.97
2022-08-04T11:53:08.482Z,17.28
2022-08-04T11:56:06.898Z,18.16
2022-08-04T11:58:25.327Z,18.81
2022-08-04T12:00:59.259Z,18.92
2022-08-04T12:03:45.154Z,19.58
2022-08-04T12:06:37.479Z,19.75
2022-08-04T12:09:36.933Z,20.23
2022-08-04T12:12:17.650Z,20.78
2022-08-04T12:15:00.098Z,21.29
2022-08-04T12:17:37.045Z,21.81
2022-08-04T12:20:34.332Z,22.54
2022-08-04T12:23:16.094Z,22.88
2022-08-04T12:25:48.631Z,23.12
2022-08-04T12:28:41.362Z,23.47
2022-08-04T12:31:25.437Z,23.88
2022-08-04T12:34:07.402Z,23.99
2022-08-04T12:36:56.269Z,24.06
2022-08-04T12:39:26.241Z,24.37
2022-08-04T12:42:11.573Z,24.88
2022-08-04T12:44:41.572Z,25.26
2022-08-04T12:47:26.916Z,25.51
2022-08-04T12:50:02.622Z,25.60
2022-08-04T12:53:01.074Z,25.92
2022-08-04T12:55:31.905Z,26.12
2022-08-04T12:58:00.213Z,26.06
2022-08-04T13:00:41.353Z,26.13
2022-08-04T13:03:12.680Z,26.58
2022-08-04T13:05:41.925Z,27.16
2022-08-04T13:08:11.938Z,26.86
2022-08-04T13:10:42.934Z,27.12
2022-08-04T13:13:19.632Z,27.43
2022-08-04T13:16:02.175Z,27.34
2022-08-04T13:18:34.660Z,27.44
2022-08-04T13:21:19.469Z,27.86
2022-08-04T13:24:20.522Z,28.19
2022-08-04T13:27:14.859Z,28.49
2022-08-04T13:30:00.083Z,28.64
2022-08-04T13:32:32.361Z,28.80
2022-08-04T13:35:01.841Z,29.26
2022-08-04T13:37:35.401Z,29.10
2022-08-04T13:40:05.613Z,29.33
2022-08-04T13:42:37.541Z,29.59
2022-08-04T13:45:07.456Z,29.71
2022-08-04T13:47:38.304Z,29.97
2022-08-04T13:50:27.303Z,29.89
2022-08-04T13:52:57.265Z,29.43
2022-08-04T13:55:33.635Z,29.75
2022-08-04T13:58:09.399Z,30.02
2022-08-04T14:00:44.742Z,29.95
2022-08-04T14:03:24.229Z,30.25
2022-08-04T14:06:11.818Z,30.49
2022-08-04T14:08:52.673Z,30.35
2022-08-04T14:12:06.216Z,30.38
2022-08-04T14:14:33.984Z,30.28
2022-08-04T14:17:19.781Z,30.06
2022-08-04T14:19:53.246Z,29.95
2022-08-04T14:22:30.140Z,29.92
2022-08-04T14:25:00.805Z,29.55
2022-08-04T14:27:29.136Z,29.85
2022-08-04T14:29:57.738Z,29.71
2022-08-04T14:32:26.493Z,29.36
2022-08-04T14:34:54.546Z,29.36
2022-08-04T14:37:23.383Z,28.88
2022-08-04T14:40:18.438Z,28.33
2022-08-04T14:42:55.429Z,28.49
2022-08-04T14:45:34.355Z,28.34
2022-08-04T14:48:13.715Z,28.39
2022-08-04T14:50:46.360Z,28.50
2022-08-04T14:53:19.889Z,28.39
2022-08-04T14:55:49.762Z,28.18
2022-08-04T14:58:35.109Z,28.38
2022-08-04T15:01:12.008Z,28.27
2022-08-04T15:03:50.630Z,27.89
2022-08-04T15:06:26.492Z,28.28
2022-08-04T15:08:58.390Z,28.47
2022-08-04T15:11:26.710Z,28.49
2022-08-04T15:13:56.575Z,28.58
2022-08-04T15:16:26.952Z,28.49
2022-08-04T15:18:56.705Z,28.58
2022-08-04T15:21:28.146Z,28.82
2022-08-04T15:23:57.408Z,28.73
2022-08-04T15:26:37.140Z,28.82
2022-08-04T15:29:24.209Z,28.61
2022-08-04T15:32:07.772Z,28.85
2022-08-04T15:34:51.081Z,28.74
2022-08-04T15:37:27.512Z,28.92
2022-08-04T15:40:09.853Z,29.04
2022-08-04T15:43:15.047Z,29.34
2022-08-04T15:46:32.885Z,29.32
2022-08-04T15:48:41.937Z,29.59
2022-08-04T15:51:15.070Z,29.72
2022-08-04T15:54:01.835Z,29.92
2022-08-04T15:56:31.038Z,29.93
2022-08-04T15:58:59.017Z,30.25
2022-08-04T16:01:27.991Z,30.07
2022-08-04T16:03:59.616Z,30.32
2022-08-04T16:06:30.550Z,30.41
2022-08-04T16:08:59.563Z,30.32
2022-08-04T16:11:32.582Z,30.36
2022-08-04T16:14:00.792Z,30.44
2022-08-04T16:16:33.451Z,30.39
2022-08-04T16:19:08.490Z,30.62
2022-08-04T16:21:48.793Z,30.61
2022-08-04T16:24:35.647Z,30.58
2022-08-04T16:27:05.165Z,30.82
2022-08-04T16:29:40.321Z,30.77
2022-08-04T16:32:19.595Z,31.04
2022-08-04T16:34:55.296Z,31.17
2022-08-04T16:37:32.289Z,31.35
2022-08-04T16:40:29.791Z,31.28
2022-08-04T16:43:06.349Z,31.45
2022-08-04T16:45:58.740Z,31.69
2022-08-04T16:48:31.628Z,31.72
2022-08-04T16:51:10.162Z,31.85
2022-08-04T16:53:57.899Z,32.03
2022-08-04T16:56:34.776Z,32.14
2022-08-04T16:59:11.341Z,32.26
2022-08-04T17:01:50.025Z,32.35
2022-08-04T17:04:18.048Z,32.61
2022-08-04T17:06:46.719Z,32.59
2022-08-04T17:09:19.527Z,32.74
2022-08-04T17:11:48.489Z,32.95
2022-08-04T17:14:25.511Z,32.86
2022-08-04T17:16:56.519Z,33.31
2022-08-04T17:19:26.472Z,33.50
2022-08-04T17:22:06.005Z,33.95
2022-08-04T17:24:36.419Z,34.19
2022-08-04T17:28:18.434Z,34.33
2022-08-04T17:29:52.743Z,34.53
2022-08-04T17:32:22.622Z,34.84
2022-08-04T17:34:53.660Z,35.12
2022-08-04T17:37:40.211Z,35.40
2022-08-04T17:40:18.451Z,35.91
2022-08-04T17:44:03.676Z,36.18
2022-08-04T17:46:33.995Z,36.63
2022-08-04T17:49:10.852Z,37.21
2022-08-04T17:52:05.898Z,37.64
2022-08-04T17:54:38.934Z,38.18
2022-08-04T17:57:13.465Z,38.66
2022-08-04T17:59:56.479Z,39.15
2022-08-04T18:02:32.156Z,39.58
2022-08-04T18:05:07.698Z,40.10
2022-08-04T18:08:38.460Z,40.55
2022-08-04T18:10:41.701Z,40.99
2022-08-04T18:13:22.222Z,41.58
2022-08-04T18:16:02.642Z,41.99
2022-08-04T18:18:30.902Z,42.45
2022-08-04T18:21:03.504Z,42.73
2022-08-04T18:23:33.400Z,43.31
2022-08-04T18:26:03.520Z,43.66
2022-08-04T18:28:33.653Z,44.06
2022-08-04T18:31:02.306Z,44.26
2022-08-04T18:33:40.868Z,44.59
2022-08-04T18:36:36.693Z,44.98
2022-08-04T18:38:59.434Z,45.39
2022-08-04T18:42:00.994Z,45.80
2022-08-04T18:44:32.198Z,46.14
2022-08-04T18:47:22.469Z,46.07
2022-08-04T18:51:00.701Z,46.33
2022-08-04T18:52:42.044Z,46.69
2022-08-04T18:55:55.457Z,46.89
2022-08-04T18:58:07.378Z,47.36
2022-08-04T19:00:45.776Z,47.65
2022-08-04T19:03:16.614Z,48.05
2022-08-04T19:05:51.714Z,48.16
2022-08-04T19:08:34.967Z,48.32
2022-08-04T19:11:38.481Z,48.87
2022-08-04T19:13:58.012Z,48.99
2022-08-04T19:16:32.502Z,49.36
2022-08-04T19:19:05.534Z,49.62
2022-08-04T19:22:00.349Z,49.76
2022-08-04T19:24:32.129Z,50.18
2022-08-04T19:27:07.240Z,50.28
2022-08-04T19:29:40.632Z,50.61
2022-08-04T19:32:14.154Z,50.84
2022-08-04T19:34:47.294Z,51.17
2022-08-04T19:37:57.816Z,51.34
2022-08-04T19:40:09.605Z,51.61
2022-08-04T19:42:38.562Z,51.80
2022-08-04T19:45:10.097Z,51.99
2022-08-04T19:48:18.192Z,52.32
2022-08-04T19:50:33.238Z,52.35
2022-08-04T19:53:01.577Z,52.60
2022-08-04T19:55:37.503Z,53.00
2022-08-04T19:58:08.468Z,53.08
2022-08-04T20:00:38.036Z,53.20
2022-08-04T20:03:09.846Z,53.46
2022-08-04T20:05:54.821Z,53.75
2022-08-04T20:08:26.681Z,54.01
2022-08-04T20:10:57.967Z,54.18
2022-08-04T20:13:37.054Z,54.30
2022-08-04T20:19:00.960Z,54.80
2022-08-04T20:21:36.498Z,55.03
2022-08-04T20:24:37.725Z,55.26
2022-08-04T20:27:15.283Z,55.54
2022-08-04T20:29:46.246Z,55.64
2022-08-04T20:32:25.389Z,55.58
2022-08-04T20:34:54.859Z,55.91
2022-08-04T20:37:24.744Z,55.98
2022-08-04T20:39:55.245Z,56.19
2022-08-04T20:42:33.818Z,56.41
2022-08-04T20:45:02.521Z,56.56
2022-08-04T20:47:35.049Z,56.87
2022-08-04T20:50:05.807Z,56.83
2022-08-04T20:52:37.981Z,56.80
2022-08-04T20:55:07.423Z,57.07
2022-08-04T20:57:48.411Z,57.26
2022-08-04T21:00:29.629Z,57.46
2022-08-04T21:02:59.328Z,57.37
2022-08-04T21:05:27.412Z,57.61
2022-08-04T21:07:57.142Z,57.93
2022-08-04T21:10:25.717Z,57.96
2022-08-04T21:12:54.506Z,57.95
2022-08-04T21:15:26.236Z,58.20
2022-08-04T21:18:14.203Z,58.45
2022-08-04T21:20:43.357Z,58.47
2022-08-04T21:23:11.208Z,58.49
2022-08-04T21:25:42.739Z,58.71
2022-08-04T21:28:12.151Z,58.68
2022-08-04T21:30:54.311Z,58.83
2022-08-04T21:33:49.618Z,59.00
2022-08-04T21:36:14.646Z,59.09
2022-08-04T21:38:51.255Z,59.19
2022-08-04T21:41:25.110Z,59.44
2022-08-04T21:43:56.122Z,59.24
2022-08-04T21:46:25.462Z,59.38
2022-08-04T21:48:58.440Z,59.47
2022-08-04T21:51:59.808Z,59.59
2022-08-04T21:54:17.578Z,59.85
2022-08-04T21:56:51.627Z,59.90
2022-08-04T21:59:28.513Z,59.83
2022-08-04T22:02:01.175Z,60.06
2022-08-04T22:04:29.645Z,60.19
2022-08-04T22:07:02.669Z,60.42
2022-08-04T22:09:38.768Z,60.55
2022-08-04T22:12:11.974Z,60.58
2022-08-04T22:14:40.420Z,60.53
2022-08-04T22:17:13.894Z,60.59
2022-08-04T22:19:55.499Z,60.63
2022-08-04T22:22:28.974Z,60.73
2022-08-04T22:25:12.479Z,60.92
2022-08-04T22:28:02.926Z,61.11
2022-08-04T22:30:36.891Z,61.11
2022-08-04T22:33:08.314Z,61.17
2022-08-04T22:35:48.988Z,61.18
2022-08-04T22:38:35.831Z,61.41
2022-08-04T22:41:10.882Z,61.45
2022-08-04T22:43:40.393Z,61.64
2022-08-04T22:46:11.923Z,61.62
2022-08-04T22:48:43.378Z,61.88
2022-08-04T22:51:12.754Z,61.71
2022-08-04T22:53:48.648Z,61.81
2022-08-04T22:56:37.374Z,61.81
2022-08-04T22:59:11.190Z,61.95
2022-08-04T23:02:00.445Z,61.94
2022-08-04T23:04:30.843Z,62.08
2022-08-04T23:06:58.815Z,62.21
2022-08-04T23:09:49.997Z,62.16
2022-08-04T23:12:30.446Z,62.31
2022-08-04T23:14:59.037Z,62.56
2022-08-04T23:17:28.433Z,62.42
2022-08-04T23:19:59.278Z,62.65
2022-08-04T23:22:42.101Z,62.49
2022-08-04T23:25:15.836Z,62.65
2022-08-04T23:27:50.519Z,62.70
2022-08-04T23:30:21.756Z,62.86
2022-08-04T23:32:53.314Z,62.89
2022-08-04T23:35:22.588Z,62.88
2022-08-04T23:37:56.822Z,62.91
2022-08-04T23:40:33.181Z,63.12
2022-08-04T23:43:17.356Z,63.06
2022-08-04T23:46:03.855Z,63.26
2022-08-04T23:48:36.864Z,63.37
2022-08-04T23:51:14.229Z,63.34
2022-08-04T23:54:02.267Z,63.29
2022-08-04T23:56:33.980Z,63.35
2022-08-04T23:59:03.969Z,63.20
